X  Fechar Dados meteorológicos de METAR da aviação     LIPX Verona-Villafranca Valerio Catullo Airport
Temperatura
13°C Temperatura
7°C Ponto de orvalho
67% Umidade



Vento
2 MPH
3 KM/H
1 M/S
2 NÓS



Calmo
N
Condições atuais

Névoa Névoa
Pressão 1030.82 (hPa) - 30.44 (inHg)
Visibilidade 2.5 (milha) - 4 (km)
Aeroporto
Código do aeroporto LIPX

Localização: Verona-Villafranca Valerio Catullo Airport
Distância: 0 (mi)

Metar:
LIPX 180950Z VRB02KT 4000 BR NSC 13/07 Q1031

Hora: 18-02-2024 09:50 CET